Time;durP1;ratioP1;P1;durP2;ratioP2;P2;SDS_P1;SDS_P2;PMS_P1;PMS_P2;Temp;Humidity;BMP_temperature;BMP_pressure;BME280_temperature;BME280_humidity;BME280_pressure;Samples;Min_cycle;Max_cycle;Signal;HPM_P1;HPM_P2
2022/08/22 00:00:11;;;;;;;;;;;;;;;18.12;100.00;99636.69;3047335;19;1242;-48
2022/08/22 00:01:21;;;;;;;;;;;;;;;18.11;100.00;99635.03;3047659;19;1343;-48
2022/08/22 00:02:28;;;;;;;;;;;;;;;18.12;100.00;99630.44;3050593;19;1442;-49
2022/08/22 00:03:43;;;;;;;;;;;;;;;18.12;100.00;99628.59;3049238;19;1317;-48
2022/08/22 00:04:54;;;;;;;;;;;;;;;18.11;100.00;99635.03;3048106;19;972;-48
2022/08/22 00:06:02;;;;;;;;;;;;;;;18.11;100.00;99629.63;3053962;19;1150;-48
2022/08/22 00:07:35;;;;;;;;;;;;;;;18.12;100.00;99631.28;3054706;19;898;-49
2022/08/22 00:08:46;;;;;;;;;;;;;;;18.13;100.00;99624.03;3053901;19;957;-49
2022/08/22 00:10:03;;;;;;;;;;;;;;;18.14;100.00;99623.03;3053668;19;1423;-48
2022/08/22 00:11:31;;;;;;;;;;;;;;;18.13;100.00;99627.56;3053808;19;975;-48
2022/08/22 00:12:49;;;;;;;;;;;;;;;18.13;100.00;99632.13;3053457;19;1413;-49
2022/08/22 00:14:06;;;;;;;;;;;;;;;18.13;100.00;99621.31;3053700;19;1225;-49
2022/08/22 00:15:12;;;;;;;;;;;;;;;18.11;100.00;99632.31;3052973;19;1120;-48
2022/08/22 00:16:37;;;;;;;;;;;;;;;18.12;100.00;99627.75;3053698;19;1285;-50
2022/08/22 00:17:52;;;;;;;;;;;;;;;18.11;100.00;99635.03;3052570;19;1857;-49
2022/08/22 00:18:56;;;;;;;;;;;;;;;18.11;100.00;99635.03;3054425;19;1018;-48
2022/08/22 00:20:17;;;;;;;;;;;;;;;17.98;100.00;99623.84;3053304;19;2072;-48
2022/08/22 00:21:21;;;;;;;;;;;;;;;18.11;100.00;99629.63;3047094;19;1142;-49
2022/08/22 00:22:44;;;;;;;;;;;;;;;18.11;100.00;99632.31;3046638;19;1374;-48
2022/08/22 00:23:46;;;;;;;;;;;;;;;18.11;100.00;99632.31;3047760;19;1452;-49
2022/08/22 00:24:53;;;;;;;;;;;;;;;18.13;100.00;99632.97;3050021;19;937;-48
2022/08/22 00:26:00;;;;;;;;;;;;;;;18.15;100.00;99624.72;3048951;19;932;-48
2022/08/22 00:27:12;;;;;;;;;;;;;;;18.17;100.00;99633.50;3048984;19;1354;-50
2022/08/22 00:28:19;;;;;;;;;;;;;;;18.16;100.00;99632.66;3053516;19;1367;-49
2022/08/22 00:29:29;;;;;;;;;;;;;;;18.17;100.00;99626.25;3054314;19;1046;-48
2022/08/22 00:30:35;;;;;;;;;;;;;;;18.21;100.00;99635.72;3052768;19;1092;-48
2022/08/22 00:31:44;;;;;;;;;;;;;;;18.22;100.00;99626.63;3053421;19;1157;-50
2022/08/22 00:32:50;;;;;;;;;;;;;;;18.24;100.00;99632.66;3054054;19;1011;-48
2022/08/22 00:33:57;;;;;;;;;;;;;;;18.24;100.00;99629.13;3053941;19;980;-48
2022/08/22 00:35:02;;;;;;;;;;;;;;;18.27;100.00;99623.41;3054019;19;1183;-49
2022/08/22 00:36:09;;;;;;;;;;;;;;;18.29;100.00;99619.53;3053659;19;987;-48
2022/08/22 00:37:15;;;;;;;;;;;;;;;18.31;100.00;99625.63;3053485;19;1836;-50
2022/08/22 00:38:28;;;;;;;;;;;;;;;18.33;100.00;99629.00;3053667;19;949;-49
2022/08/22 00:39:52;;;;;;;;;;;;;;;18.37;100.00;99629.50;3054665;19;906;-48
2022/08/22 00:41:03;;;;;;;;;;;;;;;18.41;100.00;99633.56;3053806;19;1152;-49
2022/08/22 00:42:17;;;;;;;;;;;;;;;18.44;100.00;99635.09;3052809;19;1020;-50
2022/08/22 00:43:53;;;;;;;;;;;;;;;18.47;100.00;99635.63;3046522;19;1238;-49
2022/08/22 00:44:55;;;;;;;;;;;;;;;18.47;100.00;99629.38;3045839;19;1406;-49
2022/08/22 00:46:09;;;;;;;;;;;;;;;18.50;100.00;99629.03;3047748;19;964;-48
2022/08/22 00:47:10;;;;;;;;;;;;;;;18.51;100.00;99626.16;3049165;19;1051;-49
2022/08/22 00:48:34;;;;;;;;;;;;;;;18.55;100.00;99632.09;3049878;19;907;-48
2022/08/22 00:49:41;;;;;;;;;;;;;;;18.56;100.00;99622.97;3049125;19;1305;-48
2022/08/22 00:50:45;;;;;;;;;;;;;;;18.56;100.00;99623.81;3053276;19;1106;-49
2022/08/22 00:51:56;;;;;;;;;;;;;;;18.61;100.00;99632.28;3053542;19;1056;-48
2022/08/22 00:53:00;;;;;;;;;;;;;;;18.64;100.00;99625.69;3054744;19;1211;-48
2022/08/22 00:54:26;;;;;;;;;;;;;;;18.68;100.00;99625.22;3054850;19;1194;-50
2022/08/22 00:55:45;;;;;;;;;;;;;;;18.71;100.00;99626.75;3052361;19;1155;-48
2022/08/22 00:56:49;;;;;;;;;;;;;;;18.70;100.00;99631.31;3054483;19;1216;-48
2022/08/22 00:58:02;;;;;;;;;;;;;;;18.75;100.00;99628.06;3053842;19;1866;-49
2022/08/22 00:59:10;;;;;;;;;;;;;;;18.77;100.00;99636.88;3053236;19;1020;-48
2022/08/22 01:00:26;;;;;;;;;;;;;;;18.77;100.00;99630.63;3053471;19;944;-51
2022/08/22 01:01:42;;;;;;;;;;;;;;;18.77;100.00;99638.72;3053534;19;1230;-49
2022/08/22 01:03:00;;;;;;;;;;;;;;;18.79;100.00;99642.97;3052999;19;1124;-49
2022/08/22 01:04:05;;;;;;;;;;;;;;;18.79;100.00;99648.38;3053656;19;1023;-48
2022/08/22 01:05:19;;;;;;;;;;;;;;;18.78;100.00;99653.94;3050922;19;1145;-49
2022/08/22 01:06:29;;;;;;;;;;;;;;;18.77;100.00;99652.25;3047507;19;865;-48
2022/08/22 01:07:37;;;;;;;;;;;;;;;18.77;100.00;99653.09;3046137;19;1114;-48
2022/08/22 01:08:45;;;;;;;;;;;;;;;18.76;100.00;99650.56;3047614;19;911;-48
2022/08/22 01:09:49;;;;;;;;;;;;;;;18.74;100.00;99653.41;3049323;19;1048;-48
2022/08/22 01:11:07;;;;;;;;;;;;;;;18.77;100.00;99653.09;3049048;19;1174;-49
2022/08/22 01:12:10;;;;;;;;;;;;;;;18.76;100.00;99662.22;3049101;19;972;-50
2022/08/22 01:13:33;;;;;;;;;;;;;;;18.76;100.00;99656.81;3053147;19;1040;-49
2022/08/22 01:14:38;;;;;;;;;;;;;;;18.73;100.00;99654.44;3054421;19;1021;-48
2022/08/22 01:15:42;;;;;;;;;;;;;;;18.72;100.00;99651.91;3053894;19;1084;-48
2022/08/22 01:16:47;;;;;;;;;;;;;;;18.71;100.00;99659.19;3054190;19;1192;-48
2022/08/22 01:18:07;;;;;;;;;;;;;;;18.71;100.00;99667.28;3052932;19;1845;-49
2022/08/22 01:19:28;;;;;;;;;;;;;;;18.67;100.00;99663.22;3057107;19;1188;-48
2022/08/22 01:20:38;;;;;;;;;;;;;;;18.67;100.00;99663.22;3054102;19;2191;-47
2022/08/22 01:21:40;;;;;;;;;;;;;;;18.64;100.00;99663.53;3054573;19;1764;-48
2022/08/22 01:22:56;;;;;;;;;;;;;;;18.63;100.00;99664.56;3057323;19;950;-48
2022/08/22 01:23:58;;;;;;;;;;;;;;;18.61;100.00;99659.31;3056705;19;961;-49
2022/08/22 01:25:21;;;;;;;;;;;;;;;18.59;100.00;99661.34;3056482;19;1005;-48
2022/08/22 01:26:29;;;;;;;;;;;;;;;18.57;100.00;99673.31;3056619;19;1205;-48
2022/08/22 01:27:46;;;;;;;;;;;;;;;18.53;100.00;99661.13;3053672;19;1063;-49
2022/08/22 01:29:14;;;;;;;;;;;;;;;18.51;100.00;99668.53;3049519;19;1212;-49
2022/08/22 01:30:31;;;;;;;;;;;;;;;18.48;100.00;99669.72;3047982;19;1651;-48
2022/08/22 01:31:36;;;;;;;;;;;;;;;18.46;100.00;99665.50;3052089;19;925;-49
2022/08/22 01:33:04;;;;;;;;;;;;;;;18.45;100.00;99669.22;3051934;19;1116;-49
2022/08/22 01:34:11;;;;;;;;;;;;;;;18.41;100.00;99673.25;3050477;19;1350;-47
2022/08/22 01:35:34;;;;;;;;;;;;;;;18.40;100.00;99668.84;3055810;19;1002;-50
2022/08/22 01:36:44;;;;;;;;;;;;;;;18.41;100.00;99673.25;3057316;19;940;-48
2022/08/22 01:37:51;;;;;;;;;;;;;;;18.38;100.00;99665.47;3056684;19;1868;-49
2022/08/22 01:39:01;;;;;;;;;;;;;;;18.38;100.00;99670.88;3056689;19;1126;-48
2022/08/22 01:40:09;;;;;;;;;;;;;;;18.37;100.00;99661.91;3056105;19;1483;-48
2022/08/22 01:41:23;;;;;;;;;;;;;;;18.36;100.00;99666.47;3056415;19;1213;-48
2022/08/22 01:42:51;;;;;;;;;;;;;;;18.36;100.00;99665.63;3055437;19;1123;-48
2022/08/22 01:44:02;;;;;;;;;;;;;;;18.35;100.00;99664.78;3055766;19;1261;-48
2022/08/22 01:45:15;;;;;;;;;;;;;;;18.35;100.00;99675.59;3055984;19;952;-49
2022/08/22 01:46:17;;;;;;;;;;;;;;;18.36;100.00;99669.19;3057002;19;984;-48
2022/08/22 01:47:45;;;;;;;;;;;;;;;18.38;100.00;99668.16;3056412;19;1075;-51
2022/08/22 01:48:48;;;;;;;;;;;;;;;18.36;100.00;99666.47;3056919;19;1129;-49
2022/08/22 01:49:54;;;;;;;;;;;;;;;18.39;100.00;99665.31;3053192;19;1261;-50
2022/08/22 01:51:38;;;;;;;;;;;;;;;18.41;100.00;99657.03;3048148;19;991;-49
2022/08/22 01:52:52;;;;;;;;;;;;;;;18.44;100.00;99662.97;3047333;19;1264;-48
2022/08/22 01:54:05;;;;;;;;;;;;;;;18.47;100.00;99656.41;3049354;19;984;-49
2022/08/22 01:55:41;;;;;;;;;;;;;;;18.50;100.00;99659.59;3049783;19;1246;-48
2022/08/22 01:56:44;;;;;;;;;;;;;;;18.52;100.00;99654.03;3049121;19;1548;-48
2022/08/22 01:57:52;;;;;;;;;;;;;;;18.53;100.00;99655.72;3053768;19;1132;-48
2022/08/22 01:58:57;;;;;;;;;;;;;;;18.53;100.00;99655.72;3054567;19;1837;-49
2022/08/22 02:00:08;;;;;;;;;;;;;;;18.51;100.00;99661.28;3055077;19;1333;-50
2022/08/22 02:01:12;;;;;;;;;;;;;;;18.52;100.00;99652.16;3055593;19;996;-48
2022/08/22 02:02:44;;;;;;;;;;;;;;;18.50;100.00;99639.84;3055937;19;1081;-48
2022/08/22 02:03:54;;;;;;;;;;;;;;;18.51;100.00;99652.34;3056026;19;1361;-48
2022/08/22 02:05:12;;;;;;;;;;;;;;;18.51;100.00;99657.72;3055072;19;1095;-49
2022/08/22 02:06:19;;;;;;;;;;;;;;;18.50;100.00;99653.34;3055977;19;980;-49
2022/08/22 02:07:23;;;;;;;;;;;;;;;18.48;100.00;99652.66;3055690;19;1091;-48
2022/08/22 02:08:33;;;;;;;;;;;;;;;18.47;100.00;99648.28;3055620;19;1028;-48
2022/08/22 02:09:49;;;;;;;;;;;;;;;18.45;100.00;99653.00;3056318;19;976;-49
2022/08/22 02:11:05;;;;;;;;;;;;;;;18.44;100.00;99652.16;3055981;19;1015;-49
2022/08/22 02:12:23;;;;;;;;;;;;;;;18.42;100.00;99648.78;3053891;19;1207;-48
2022/08/22 02:13:45;;;;;;;;;;;;;;;18.33;100.00;99634.41;3048915;19;1039;-49
2022/08/22 02:14:54;;;;;;;;;;;;;;;18.42;100.00;99654.19;3047670;19;1115;-53
2022/08/22 02:16:02;;;;;;;;;;;;;;;18.43;100.00;99646.91;3049377;19;1129;-49
2022/08/22 02:17:45;;;;;;;;;;;;;;;18.36;100.00;99639.47;3050969;19;1144;-48
2022/08/22 02:18:56;;;;;;;;;;;;;;;18.42;100.00;99648.78;3049480;19;1858;-48
2022/08/22 02:20:19;;;;;;;;;;;;;;;18.43;100.00;99650.47;3051982;19;1044;-48
2022/08/22 02:21:42;;;;;;;;;;;;;;;18.44;100.00;99651.31;3054953;19;1253;-49
2022/08/22 02:22:52;;;;;;;;;;;;;;;18.44;100.00;99645.91;3053896;19;1289;-48
2022/08/22 02:24:07;;;;;;;;;;;;;;;18.44;100.00;99654.03;3054747;19;1225;-48
2022/08/22 02:25:12;;;;;;;;;;;;;;;18.44;100.00;99651.31;3055577;19;1107;-49
2022/08/22 02:26:16;;;;;;;;;;;;;;;18.43;100.00;99652.31;3055656;19;1096;-49
2022/08/22 02:27:30;;;;;;;;;;;;;;;18.42;100.00;99646.06;3055416;19;999;-48
2022/08/22 02:28:54;;;;;;;;;;;;;;;18.40;100.00;99644.53;3056142;19;1170;-48
2022/08/22 02:30:01;;;;;;;;;;;;;;;18.46;100.00;99649.31;3056092;19;1005;-49
2022/08/22 02:31:08;;;;;;;;;;;;;;;18.43;100.00;99644.22;3056143;19;1180;-48
2022/08/22 02:32:15;;;;;;;;;;;;;;;18.43;100.00;99644.22;3056801;19;1142;-49
2022/08/22 02:33:25;;;;;;;;;;;;;;;18.42;100.00;99642.53;3056430;19;1419;-48
2022/08/22 02:34:37;;;;;;;;;;;;;;;18.42;100.00;99640.66;3055367;19;1236;-48
2022/08/22 02:35:44;;;;;;;;;;;;;;;18.42;100.00;99645.22;3047642;19;1426;-49
2022/08/22 02:36:49;;;;;;;;;;;;;;;18.43;100.00;99649.63;3047542;19;1637;-48
2022/08/22 02:37:59;;;;;;;;;;;;;;;18.44;100.00;99654.03;3047781;19;1013;-48
2022/08/22 02:39:07;;;;;;;;;;;;;;;18.45;100.00;99642.19;3049786;19;1854;-49
2022/08/22 02:40:14;;;;;;;;;;;;;;;18.43;100.00;99652.31;3051162;19;1072;-48
2022/08/22 02:41:16;;;;;;;;;;;;;;;18.46;100.00;99646.59;3049639;19;1229;-48
2022/08/22 02:42:31;;;;;;;;;;;;;;;18.46;100.00;99652.84;3052517;19;971;-49
2022/08/22 02:43:43;;;;;;;;;;;;;;;18.49;100.00;99648.94;3055330;19;1007;-48
2022/08/22 02:44:54;;;;;;;;;;;;;;;18.51;100.00;99655.88;3054795;19;1112;-48
2022/08/22 02:46:02;;;;;;;;;;;;;;;18.54;100.00;99660.13;3055468;19;1096;-48
2022/08/22 02:47:14;;;;;;;;;;;;;;;18.53;100.00;99651.16;3054906;19;1169;-49
2022/08/22 02:48:24;;;;;;;;;;;;;;;18.53;100.00;99658.41;3055465;19;1402;-48
2022/08/22 02:49:43;;;;;;;;;;;;;;;18.54;100.00;99662.81;3054542;19;1097;-49
2022/08/22 02:50:57;;;;;;;;;;;;;;;18.54;100.00;99665.53;3054971;19;1103;-49
2022/08/22 02:52:20;;;;;;;;;;;;;;;18.53;100.00;99663.81;3055867;19;1071;-48
2022/08/22 02:53:26;;;;;;;;;;;;;;;18.52;100.00;99654.03;3055484;19;1247;-50
2022/08/22 02:54:43;;;;;;;;;;;;;;;18.52;100.00;99662.97;3055938;19;948;-50
2022/08/22 02:56:05;;;;;;;;;;;;;;;18.52;100.00;99670.25;3054525;19;1375;-48
2022/08/22 02:57:18;;;;;;;;;;;;;;;18.51;100.00;99666.69;3052995;19;1119;-48
2022/08/22 02:58:44;;;;;;;;;;;;;;;18.49;100.00;99660.59;3047418;19;1312;-48
2022/08/22 03:00:02;;;;;;;;;;;;;;;18.47;100.00;99667.19;3046756;19;1861;-48
2022/08/22 03:01:14;;;;;;;;;;;;;;;18.48;100.00;99658.06;3050170;19;1378;-50
2022/08/22 03:02:26;;;;;;;;;;;;;;;18.47;100.00;99662.66;3049968;19;1107;-48
2022/08/22 03:03:32;;;;;;;;;;;;;;;18.47;100.00;99661.81;3050031;19;1120;-48
2022/08/22 03:04:40;;;;;;;;;;;;;;;18.42;100.00;99654.19;3052939;19;1190;-49
2022/08/22 03:05:45;;;;;;;;;;;;;;;18.51;100.00;99664.00;3054845;19;1142;-49
2022/08/22 03:07:05;;;;;;;;;;;;;;;18.52;100.00;99665.69;3055278;19;979;-49
2022/08/22 03:08:13;;;;;;;;;;;;;;;18.49;100.00;99657.06;3055983;19;1281;-48
2022/08/22 03:09:15;;;;;;;;;;;;;;;18.58;100.00;99669.63;3054818;19;1063;-48
2022/08/22 03:10:22;;;;;;;;;;;;;;;18.57;100.00;99670.59;3054535;19;983;-48
2022/08/22 03:11:25;;;;;;;;;;;;;;;18.60;100.00;99673.81;3054858;19;1152;-49
2022/08/22 03:12:35;;;;;;;;;;;;;;;18.61;100.00;99674.69;3054458;19;1111;-48
2022/08/22 03:13:58;;;;;;;;;;;;;;;18.60;100.00;99672.97;3055186;19;877;-49
2022/08/22 03:15:15;;;;;;;;;;;;;;;18.61;100.00;99667.41;3054636;19;1264;-48
2022/08/22 03:16:32;;;;;;;;;;;;;;;18.64;100.00;99674.34;3053814;19;1331;-49
2022/08/22 03:17:51;;;;;;;;;;;;;;;18.67;100.00;99679.44;3054723;19;987;-48
2022/08/22 03:19:07;;;;;;;;;;;;;;;18.70;100.00;99668.28;3054570;19;1227;-49
2022/08/22 03:20:22;;;;;;;;;;;;;;;18.71;100.00;99680.81;3047423;19;1458;-49
2022/08/22 03:21:35;;;;;;;;;;;;;;;18.73;100.00;99676.06;3047201;19;1163;-49
2022/08/22 03:22:50;;;;;;;;;;;;;;;18.73;100.00;99678.75;3047116;19;1308;-48
2022/08/22 03:23:56;;;;;;;;;;;;;;;18.77;100.00;99680.13;3050184;19;970;-48
2022/08/22 03:25:06;;;;;;;;;;;;;;;18.76;100.00;99675.72;3049192;19;1257;-48
2022/08/22 03:26:19;;;;;;;;;;;;;;;18.79;100.00;99677.25;3049896;19;1333;-50
2022/08/22 03:27:23;;;;;;;;;;;;;;;18.75;100.00;99679.44;3053425;19;1128;-48
2022/08/22 03:28:38;;;;;;;;;;;;;;;18.79;100.00;99688.91;3054441;19;1228;-48
2022/08/22 03:30:22;;;;;;;;;;;;;;;18.78;100.00;99687.22;3054181;19;1086;-48
2022/08/22 03:31:24;;;;;;;;;;;;;;;18.80;100.00;99693.31;3053971;19;1194;-48
2022/08/22 03:32:48;;;;;;;;;;;;;;;18.78;100.00;99694.47;3054738;19;1012;-50
2022/08/22 03:34:09;;;;;;;;;;;;;;;18.84;100.00;99702.75;3054753;19;1220;-49
2022/08/22 03:35:23;;;;;;;;;;;;;;;18.88;100.00;99709.53;3055243;19;1280;-47
2022/08/22 03:36:30;;;;;;;;;;;;;;;18.89;100.00;99710.38;3055178;19;1007;-50
2022/08/22 03:37:35;;;;;;;;;;;;;;;18.88;100.00;99709.53;3054926;19;1127;-48
2022/08/22 03:38:46;;;;;;;;;;;;;;;18.87;100.00;99713.25;3055158;19;1204;-48
2022/08/22 03:39:56;;;;;;;;;;;;;;;18.89;100.00;99713.09;3053357;19;1840;-49
2022/08/22 03:41:19;;;;;;;;;;;;;;;18.89;100.00;99711.22;3055380;19;1167;-48
2022/08/22 03:42:21;;;;;;;;;;;;;;;18.86;100.00;99708.84;3049580;19;1224;-49
2022/08/22 03:43:25;;;;;;;;;;;;;;;18.88;100.00;99712.25;3048582;19;1131;-49
2022/08/22 03:44:30;;;;;;;;;;;;;;;18.88;100.00;99714.94;3048286;19;1185;-48
2022/08/22 03:45:44;;;;;;;;;;;;;;;18.90;100.00;99723.75;3050086;19;1059;-49
2022/08/22 03:46:49;;;;;;;;;;;;;;;18.95;100.00;99715.16;3050300;19;1012;-49
2022/08/22 03:48:12;;;;;;;;;;;;;;;18.97;100.00;99719.34;3050838;19;1486;-48
2022/08/22 03:49:34;;;;;;;;;;;;;;;18.92;100.00;99710.91;3051585;19;1457;-48
2022/08/22 03:50:55;;;;;;;;;;;;;;;19.01;100.00;99731.53;3054642;19;1416;-49
2022/08/22 03:52:18;;;;;;;;;;;;;;;19.04;100.00;99735.75;3055124;19;1250;-49
2022/08/22 03:53:55;;;;;;;;;;;;;;;19.06;100.00;99734.59;3054681;19;1238;-48
2022/08/22 03:55:10;;;;;;;;;;;;;;;19.10;100.00;99739.63;3052745;19;1604;-50
2022/08/22 03:56:18;;;;;;;;;;;;;;;19.11;100.00;99746.75;3053277;19;1203;-49
2022/08/22 03:57:26;;;;;;;;;;;;;;;19.13;100.00;99744.72;3053375;19;1158;-49
2022/08/22 03:58:46;;;;;;;;;;;;;;;19.15;100.00;99748.13;3054451;19;991;-49
2022/08/22 03:59:56;;;;;;;;;;;;;;;19.17;100.00;99751.50;3055166;19;1853;-48
2022/08/22 04:01:17;;;;;;;;;;;;;;;19.18;100.00;99753.19;3053403;19;1693;-49
2022/08/22 04:02:40;;;;;;;;;;;;;;;19.20;100.00;99745.75;3054923;19;1031;-50
2022/08/22 04:04:03;;;;;;;;;;;;;;;19.22;100.00;99752.69;3054398;19;1608;-49
2022/08/22 04:05:12;;;;;;;;;;;;;;;19.22;100.00;99757.25;3047888;19;1516;-48
2022/08/22 04:06:16;;;;;;;;;;;;;;;19.21;100.00;99755.53;3047414;19;1029;-49
2022/08/22 04:07:44;;;;;;;;;;;;;;;19.19;100.00;99754.91;3047548;19;1456;-48
2022/08/22 04:09:05;;;;;;;;;;;;;;;19.23;100.00;99765.19;3048489;19;1035;-49
2022/08/22 04:10:11;;;;;;;;;;;;;;;19.26;100.00;99774.84;3049207;19;1143;-49
2022/08/22 04:11:31;;;;;;;;;;;;;;;19.30;100.00;99768.09;3050149;19;944;-48
2022/08/22 04:12:54;;;;;;;;;;;;;;;19.56;100.00;99779.59;3054675;19;1182;-49
2022/08/22 04:13:56;;;;;;;;;;;;;;;20.18;100.00;99795.28;3055055;19;1214;-48
2022/08/22 04:15:00;;;;;;;;;;;;;;;20.57;100.00;99811.63;3054208;19;1158;-49
2022/08/22 04:16:21;;;;;;;;;;;;;;;20.90;100.00;99829.44;3054761;19;1189;-49
2022/08/22 04:17:26;;;;;;;;;;;;;;;21.26;100.00;99862.34;3054576;19;1169;-48
2022/08/22 04:18:43;;;;;;;;;;;;;;;21.57;100.00;99897.66;3054726;19;1350;-49
2022/08/22 04:19:48;;;;;;;;;;;;;;;21.88;100.00;99922.88;3054168;19;1334;-48
2022/08/22 04:21:10;;;;;;;;;;;;;;;22.12;100.00;99951.78;3053677;19;1846;-48
2022/08/22 04:22:18;;;;;;;;;;;;;;;22.43;100.00;99969.88;3053438;19;1392;-47
2022/08/22 04:23:38;;;;;;;;;;;;;;;22.74;100.00;99986.06;3054188;19;1133;-48
2022/08/22 04:24:53;;;;;;;;;;;;;;;23.03;100.00;100007.09;3052569;19;1554;-49
2022/08/22 04:25:56;;;;;;;;;;;;;;;23.28;100.00;100017.50;3052613;19;1348;-48
2022/08/22 04:27:20;;;;;;;;;;;;;;;23.42;100.00;100036.75;3048206;19;1272;-49
2022/08/22 04:28:32;;;;;;;;;;;;;;;23.46;100.00;100052.53;3045585;19;1019;-48
2022/08/22 04:29:53;;;;;;;;;;;;;;;23.72;100.00;100057.53;3046473;19;1220;-48
2022/08/22 04:30:59;;;;;;;;;;;;;;;23.95;100.00;100063.69;3049115;19;1097;-48
2022/08/22 04:32:11;;;;;;;;;;;;;;;24.20;100.00;100068.78;3049255;19;1007;-49
2022/08/22 04:33:20;;;;;;;;;;;;;;;24.38;100.00;100083.72;3047715;19;1682;-48
2022/08/22 04:34:33;;;;;;;;;;;;;;;24.49;100.00;100095.16;3051098;19;1433;-48
2022/08/22 04:35:42;;;;;;;;;;;;;;;24.56;100.00;100096.91;3053150;19;1177;-50
2022/08/22 04:36:49;;;;;;;;;;;;;;;24.59;100.00;100104.72;3052902;19;1034;-49
2022/08/22 04:37:59;;;;;;;;;;;;;;;24.66;100.00;100100.16;3052855;19;924;-48
2022/08/22 04:39:02;;;;;;;;;;;;;;;24.62;100.00;100108.94;3053196;19;1002;-48
2022/08/22 04:40:22;;;;;;;;;;;;;;;24.59;100.00;100106.59;3052454;19;2075;-48
2022/08/22 04:41:45;;;;;;;;;;;;;;;24.63;100.00;100110.63;3053738;19;1154;-49
2022/08/22 04:42:54;;;;;;;;;;;;;;;24.63;100.00;100113.38;3054438;19;1395;-48
2022/08/22 04:43:58;;;;;;;;;;;;;;;24.64;100.00;100110.41;3054369;19;1129;-48
2022/08/22 04:45:17;;;;;;;;;;;;;;;24.53;100.00;100112.81;3053056;19;1036;-49
2022/08/22 04:46:22;;;;;;;;;;;;;;;24.36;100.00;100106.78;3053275;19;996;-48
2022/08/22 04:47:45;;;;;;;;;;;;;;;24.14;100.00;100105.88;3054042;19;1012;-48
2022/08/22 04:49:17;;;;;;;;;;;;;;;23.69;100.00;100102.34;3053324;19;1136;-49
2022/08/22 04:50:23;;;;;;;;;;;;;;;23.13;100.00;100082.00;3045938;19;1242;-50
2022/08/22 04:51:29;;;;;;;;;;;;;;;22.83;100.00;100085.66;3046270;19;1036;-48
2022/08/22 04:52:40;;;;;;;;;;;;;;;22.56;100.00;100077.03;3049850;19;1217;-48
2022/08/22 04:53:47;;;;;;;;;;;;;;;22.34;100.00;100069.69;3051829;19;1059;-50
2022/08/22 04:55:01;;;;;;;;;;;;;;;22.17;100.00;100068.13;3052252;19;1349;-48
2022/08/22 04:56:24;;;;;;;;;;;;;;;22.06;100.00;100054.94;3052285;19;1039;-48
2022/08/22 04:57:47;;;;;;;;;;;;;;;21.87;100.00;100046.16;3056576;19;1060;-48
2022/08/22 04:59:10;;;;;;;;;;;;;;;21.79;100.00;100035.34;3056993;19;1008;-49
2022/08/22 05:00:15;;;;;;;;;;;;;;;21.66;100.00;100029.63;3055382;19;1342;-48
2022/08/22 05:01:19;;;;;;;;;;;;;;;21.46;100.00;100025.66;3053446;19;1858;-49
2022/08/22 05:02:26;;;;;;;;;;;;;;;21.40;100.00;100020.91;3057837;19;1164;-48
2022/08/22 05:03:28;;;;;;;;;;;;;;;21.36;100.00;100020.44;3056546;19;1127;-48
2022/08/22 05:04:39;;;;;;;;;;;;;;;21.32;100.00;100016.38;3056676;19;1099;-48
2022/08/22 05:05:41;;;;;;;;;;;;;;;21.16;100.00;99997.38;3057141;19;1284;-49
2022/08/22 05:06:47;;;;;;;;;;;;;;;21.15;100.00;100004.69;3056573;19;1083;-50
2022/08/22 05:07:50;;;;;;;;;;;;;;;21.10;100.00;99998.94;3056884;19;1065;-50
2022/08/22 05:08:55;;;;;;;;;;;;;;;21.08;100.00;99992.84;3056164;19;1729;-49
2022/08/22 05:10:22;;;;;;;;;;;;;;;21.15;100.00;99982.97;3056526;19;997;-49
2022/08/22 05:11:24;;;;;;;;;;;;;;;21.17;100.00;99990.94;3053464;19;2035;-49
2022/08/22 05:12:36;;;;;;;;;;;;;;;21.13;100.00;99990.44;3049925;19;1027;-48
2022/08/22 05:13:41;;;;;;;;;;;;;;;21.13;100.00;99986.91;3048645;19;1758;-49
2022/08/22 05:14:51;;;;;;;;;;;;;;;21.16;100.00;99990.09;3048432;19;2039;-50
2022/08/22 05:15:58;;;;;;;;;;;;;;;21.06;100.00;99992.16;3050670;19;1711;-50
2022/08/22 05:17:03;;;;;;;;;;;;;;;21.16;100.00;99987.38;3051822;19;960;-49
2022/08/22 05:18:06;;;;;;;;;;;;;;;21.23;100.00;99990.28;3051534;19;1371;-49
2022/08/22 05:19:13;;;;;;;;;;;;;;;21.23;100.00;99989.44;3054424;19;1006;-48
2022/08/22 05:20:20;;;;;;;;;;;;;;;21.27;100.00;99988.03;3056517;19;1121;-48
2022/08/22 05:21:26;;;;;;;;;;;;;;;21.31;100.00;99989.41;3055603;19;1839;-50
2022/08/22 05:22:29;;;;;;;;;;;;;;;21.36;100.00;99985.16;3056885;19;1761;-49
2022/08/22 05:23:38;;;;;;;;;;;;;;;21.33;100.00;99981.94;3056335;19;1042;-48
2022/08/22 05:24:43;;;;;;;;;;;;;;;21.37;100.00;99989.56;3053645;19;1058;-49
2022/08/22 05:25:48;;;;;;;;;;;;;;;21.28;100.00;100000.59;3054818;19;975;-48
2022/08/22 05:26:51;;;;;;;;;;;;;;;21.36;100.00;99997.88;3055621;19;1105;-49
2022/08/22 05:28:02;;;;;;;;;;;;;;;21.41;100.00;99984.59;3055527;19;1047;-49
2022/08/22 05:29:06;;;;;;;;;;;;;;;21.39;100.00;99995.63;3056209;19;991;-50
2022/08/22 05:30:14;;;;;;;;;;;;;;;21.43;100.00;100001.56;3054770;19;1084;-48
2022/08/22 05:31:17;;;;;;;;;;;;;;;21.44;100.00;100000.56;3055276;19;1244;-50
2022/08/22 05:32:47;;;;;;;;;;;;;;;21.41;100.00;100006.31;3054547;19;1846;-49
2022/08/22 05:33:57;;;;;;;;;;;;;;;21.45;100.00;100005.81;3029533;19;13070;-48
2022/08/22 05:35:03;;;;;;;;;;;;;;;21.56;100.00;100004.56;3046593;19;1655;-49
2022/08/22 05:36:12;;;;;;;;;;;;;;;21.61;100.00;100002.19;2992352;19;13442;-50
2022/08/22 05:37:26;;;;;;;;;;;;;;;21.70;100.00;100011.13;3046989;19;1327;-49
2022/08/22 05:38:30;;;;;;;;;;;;;;;21.70;100.00;100020.13;3049460;19;1126;-48
2022/08/22 05:39:34;;;;;;;;;;;;;;;21.72;100.00;100012.66;3049828;19;1283;-50
2022/08/22 05:40:36;;;;;;;;;;;;;;;21.72;100.00;100015.38;3049936;19;1369;-49
2022/08/22 05:41:41;;;;;;;;;;;;;;;21.74;100.00;100018.72;3051433;19;1856;-49
2022/08/22 05:42:43;;;;;;;;;;;;;;;21.81;100.00;100017.00;3053514;19;1059;-49
2022/08/22 05:43:50;;;;;;;;;;;;;;;21.77;100.00;100028.38;3053195;19;1593;-50
2022/08/22 05:44:51;;;;;;;;;;;;;;;21.64;100.00;100025.41;3055166;19;1150;-49
2022/08/22 05:45:57;;;;;;;;;;;;;;;21.73;100.00;100017.06;3054079;19;1588;-49
2022/08/22 05:47:04;;;;;;;;;;;;;;;21.84;100.00;100008.50;3053526;19;1805;-49
2022/08/22 05:48:13;;;;;;;;;;;;;;;21.83;100.00;100023.09;3053961;19;1833;-48
2022/08/22 05:49:26;;;;;;;;;;;;;;;21.92;100.00;100022.03;3055124;19;973;-49
2022/08/22 05:50:48;;;;;;;;;;;;;;;21.90;100.00;100034.94;3053801;19;1626;-50
2022/08/22 05:51:54;;;;;;;;;;;;;;;21.88;100.00;100028.00;3054845;19;1856;-50
2022/08/22 05:53:05;;;;;;;;;;;;;;;22.00;100.00;100039.31;3053914;19;953;-50
2022/08/22 05:54:09;;;;;;;;;;;;;;;22.01;100.00;100033.72;3053860;19;1703;-48
2022/08/22 05:55:17;;;;;;;;;;;;;;;22.11;100.00;100036.19;3053964;19;1008;-50
2022/08/22 05:56:25;;;;;;;;;;;;;;;22.19;100.00;100033.44;3052503;19;937;-50
2022/08/22 05:57:34;;;;;;;;;;;;;;;22.21;100.00;100021.38;3048006;19;1247;-49
2022/08/22 05:58:40;;;;;;;;;;;;;;;22.20;100.00;100021.56;3048610;19;1375;-49
2022/08/22 05:59:44;;;;;;;;;;;;;;;22.24;100.00;100031.03;3048556;19;1685;-50
2022/08/22 06:00:48;;;;;;;;;;;;;;;22.26;100.00;100026.25;3051020;19;952;-50
2022/08/22 06:02:02;;;;;;;;;;;;;;;22.17;100.00;100024.63;3049393;19;1857;-49
2022/08/22 06:03:19;;;;;;;;;;;;;;;22.09;100.00;100038.28;3048990;19;1387;-49
2022/08/22 06:04:37;;;;;;;;;;;;;;;22.09;100.00;100027.41;3054947;19;1429;-49
2022/08/22 06:05:40;;;;;;;;;;;;;;;22.12;100.00;100030.59;3055295;19;1175;-49
2022/08/22 06:06:48;;;;;;;;;;;;;;;22.27;100.00;100027.94;3054601;19;1587;-49
2022/08/22 06:07:50;;;;;;;;;;;;;;;22.21;100.00;100028.69;3053059;19;1116;-49
2022/08/22 06:09:24;;;;;;;;;;;;;;;22.12;100.00;100043.34;3055450;19;1833;-49
2022/08/22 06:10:40;;;;;;;;;;;;;;;22.09;100.00;100038.28;3055713;19;1260;-49
2022/08/22 06:11:47;;;;;;;;;;;;;;;22.19;100.00;100033.44;3056452;19;1120;-50
2022/08/22 06:12:55;;;;;;;;;;;;;;;22.20;100.00;100035.16;3056571;19;920;-50
2022/08/22 06:14:17;;;;;;;;;;;;;;;22.21;100.00;100034.13;3055755;19;1170;-49